createdAt,value
2023-02-25T00:02:21.536Z,101928.69
2023-02-25T00:04:51.136Z,101926.03
2023-02-25T00:07:21.696Z,101925.31
2023-02-25T00:09:51.302Z,101933.09
2023-02-25T00:12:20.939Z,101927.84
2023-02-25T00:14:50.617Z,101925.19
2023-02-25T00:17:20.216Z,101931.28
2023-02-25T00:19:49.785Z,101933.19
2023-02-25T00:22:19.430Z,101940.00
2023-02-25T00:24:49.005Z,101942.03
2023-02-25T00:27:18.712Z,101942.16
2023-02-25T00:29:48.435Z,101938.44
2023-02-25T00:32:18.260Z,101944.59
2023-02-25T00:34:48.876Z,101940.25
2023-02-25T00:37:18.525Z,101949.94
2023-02-25T00:39:48.279Z,101948.34
2023-02-25T00:42:19.021Z,101956.34
2023-02-25T00:44:49.516Z,101963.38
2023-02-25T00:47:20.239Z,101958.16
2023-02-25T00:49:50.100Z,101959.84
2023-02-25T00:52:19.705Z,101957.31
2023-02-25T00:54:49.328Z,101958.16
2023-02-25T00:57:18.932Z,101960.81
2023-02-25T00:59:48.521Z,101959.84
2023-02-25T01:02:18.130Z,101963.28
2023-02-25T01:04:47.761Z,101963.16
2023-02-25T01:07:18.046Z,101960.16
2023-02-25T01:09:47.675Z,101960.72
2023-02-25T01:12:17.376Z,101964.03
2023-02-25T01:14:47.051Z,101958.56
2023-02-25T01:17:16.739Z,101956.66
2023-02-25T01:19:46.431Z,101963.47
2023-02-25T01:22:16.146Z,101965.19
2023-02-25T01:24:45.698Z,101967.84
2023-02-25T01:27:15.311Z,101967.84
2023-02-25T01:29:44.960Z,101966.78
2023-02-25T01:32:15.717Z,101967.50
2023-02-25T01:35:00.683Z,101972.56
2023-02-25T01:37:30.454Z,101972.56
2023-02-25T01:40:00.082Z,101980.44
2023-02-25T01:42:29.697Z,101971.56
2023-02-25T01:45:17.581Z,101977.63
2023-02-25T01:47:55.543Z,101988.22
2023-02-25T01:50:26.599Z,101987.25
2023-02-25T01:52:56.558Z,101976.69
2023-02-25T01:55:44.327Z,101986.41
2023-02-25T01:58:14.440Z,101980.31
2023-02-25T02:00:44.491Z,101981.19
2023-02-25T02:03:23.136Z,101982.03
2023-02-25T02:06:11.737Z,101986.53
2023-02-25T02:08:41.393Z,101988.31
2023-02-25T02:11:11.040Z,101986.53
2023-02-25T02:13:43.323Z,101981.19
2023-02-25T02:16:25.276Z,101981.91
2023-02-25T02:19:05.703Z,101980.22
2023-02-25T02:22:20.908Z,101985.66
2023-02-25T02:25:14.874Z,101988.31
2023-02-25T02:28:02.531Z,101979.47
2023-02-25T02:31:05.699Z,101980.44
2023-02-25T02:34:01.018Z,101981.41
2023-02-25T02:36:30.524Z,101974.47
2023-02-25T02:39:16.764Z,101967.31
2023-02-25T02:41:50.679Z,101973.41
2023-02-25T02:44:53.308Z,101968.16
2023-02-25T02:47:48.446Z,101964.75
2023-02-25T02:50:36.524Z,101961.25
2023-02-25T02:53:22.066Z,101954.94
2023-02-25T02:55:54.503Z,101955.16
2023-02-25T02:58:30.903Z,101958.88
2023-02-25T03:01:10.144Z,101955.34
2023-02-25T03:03:43.219Z,101957.19
2023-02-25T03:06:20.440Z,101953.66
2023-02-25T03:09:11.188Z,101948.53
2023-02-25T03:11:40.801Z,101948.44
2023-02-25T03:14:10.383Z,101952.06
2023-02-25T03:17:01.499Z,101937.88
2023-02-25T03:20:08.585Z,101940.75
2023-02-25T03:22:40.902Z,101940.97
2023-02-25T03:25:30.930Z,101939.38
2023-02-25T03:28:06.446Z,101933.84
2023-02-25T03:30:46.876Z,101931.16
2023-02-25T03:33:28.664Z,101925.91
2023-02-25T03:35:58.569Z,101920.59
2023-02-25T03:38:29.659Z,101915.38
2023-02-25T03:40:59.657Z,101912.72
2023-02-25T03:43:35.080Z,101917.91
2023-02-25T03:46:04.979Z,101916.97
2023-02-25T03:48:35.999Z,101909.91
2023-02-25T03:51:06.906Z,101902.03
2023-02-25T03:53:37.180Z,101900.22
2023-02-25T03:56:09.291Z,101897.56
2023-02-25T03:58:39.597Z,101899.25
2023-02-25T04:01:21.545Z,101898.31
2023-02-25T04:03:51.168Z,101892.44
2023-02-25T04:06:24.757Z,101894.13
2023-02-25T04:08:54.930Z,101899.47
2023-02-25T04:11:24.576Z,101904.69
2023-02-25T04:13:54.252Z,101904.78
2023-02-25T04:16:24.117Z,101904.69
2023-02-25T04:18:54.318Z,101901.91
2023-02-25T04:21:32.635Z,101895.84
2023-02-25T04:24:02.370Z,101891.47
2023-02-25T04:26:31.952Z,101892.34
2023-02-25T04:29:05.374Z,101892.22
2023-02-25T04:31:35.147Z,101882.41
2023-02-25T04:34:04.867Z,101880.56
2023-02-25T04:36:36.620Z,101889.44
2023-02-25T04:39:07.103Z,101882.41
2023-02-25T04:41:37.656Z,101887.63
2023-02-25T04:44:07.918Z,101886.88
2023-02-25T04:46:39.298Z,101886.88
2023-02-25T04:49:09.275Z,101878.13
2023-02-25T04:51:39.922Z,101879.84
2023-02-25T04:54:10.166Z,101871.09
2023-02-25T04:56:40.098Z,101874.50
2023-02-25T04:59:12.849Z,101874.50
2023-02-25T05:01:43.153Z,101880.69
2023-02-25T05:04:12.803Z,101870.25
2023-02-25T05:06:42.466Z,101879.09
2023-02-25T05:09:12.052Z,101873.66
2023-02-25T05:11:41.597Z,101879.00
2023-02-25T05:14:11.561Z,101877.41
2023-02-25T05:16:41.365Z,101871.09
2023-02-25T05:19:10.992Z,101872.91
2023-02-25T05:21:40.603Z,101881.75
2023-02-25T05:24:10.606Z,101879.09
2023-02-25T05:26:40.297Z,101888.06
2023-02-25T05:29:09.983Z,101887.94
2023-02-25T05:31:39.769Z,101887.94
2023-02-25T05:34:09.476Z,101878.38
2023-02-25T05:36:39.082Z,101874.72
2023-02-25T05:39:08.674Z,101873.97
2023-02-25T05:41:38.256Z,101875.69
2023-02-25T05:44:08.034Z,101882.81
2023-02-25T05:46:37.732Z,101869.59
2023-02-25T05:49:07.286Z,101865.97
2023-02-25T05:51:37.051Z,101870.38
2023-02-25T05:54:06.761Z,101872.28
2023-02-25T05:56:36.334Z,101868.75
2023-02-25T05:59:06.012Z,101860.63
2023-02-25T06:01:35.624Z,101858.94
2023-02-25T06:04:05.291Z,101873.13
2023-02-25T06:06:35.004Z,101865.25
2023-02-25T06:09:07.305Z,101865.34
2023-02-25T06:11:36.943Z,101871.56
2023-02-25T06:14:06.602Z,101882.22
2023-02-25T06:16:36.272Z,101881.34
2023-02-25T06:19:05.930Z,101883.06
2023-02-25T06:21:36.073Z,101879.63
2023-02-25T06:24:06.166Z,101889.47
2023-02-25T06:26:36.872Z,101897.47
2023-02-25T06:29:06.534Z,101903.56
2023-02-25T06:31:36.165Z,101892.00
2023-02-25T06:34:05.968Z,101894.78
2023-02-25T06:36:35.693Z,101893.94
2023-02-25T06:39:05.341Z,101897.59
2023-02-25T06:41:34.887Z,101896.50
2023-02-25T06:44:05.956Z,101892.13
2023-02-25T06:46:35.633Z,101892.25
2023-02-25T06:49:05.154Z,101893.94
2023-02-25T06:51:34.790Z,101903.75
2023-02-25T06:54:05.394Z,101899.16
2023-02-25T06:56:35.077Z,101904.50
2023-02-25T06:59:04.766Z,101901.94
2023-02-25T07:01:34.406Z,101898.44
2023-02-25T07:04:04.056Z,101900.25
2023-02-25T07:06:33.724Z,101892.25
2023-02-25T07:09:03.322Z,101897.59
2023-02-25T07:11:35.252Z,101896.69
2023-02-25T07:14:05.942Z,101895.97
2023-02-25T07:16:36.152Z,101900.34
2023-02-25T07:19:05.733Z,101896.69
2023-02-25T07:21:35.385Z,101902.16
2023-02-25T07:24:04.973Z,101903.00
2023-02-25T07:26:34.560Z,101899.50
2023-02-25T07:29:04.307Z,101903.13
2023-02-25T07:31:34.143Z,101908.44
2023-02-25T07:34:05.308Z,101914.63
2023-02-25T07:36:36.758Z,101914.63
2023-02-25T07:39:08.472Z,101912.94
2023-02-25T07:41:38.230Z,101912.06
2023-02-25T07:44:08.176Z,101911.97
2023-02-25T07:46:38.084Z,101910.28
2023-02-25T07:49:07.676Z,101919.13
2023-02-25T07:51:37.366Z,101923.47
2023-02-25T07:54:07.098Z,101921.78
2023-02-25T07:56:36.695Z,101923.59
2023-02-25T07:59:06.341Z,101920.94
2023-02-25T08:01:36.316Z,101921.88
2023-02-25T08:04:07.312Z,101922.13
2023-02-25T08:06:43.282Z,101933.63
2023-02-25T08:09:13.864Z,101924.78
2023-02-25T08:11:44.178Z,101934.56
2023-02-25T08:14:13.914Z,101935.66
2023-02-25T08:16:43.581Z,101937.47
2023-02-25T08:19:13.225Z,101943.84
2023-02-25T08:21:42.928Z,101941.00
2023-02-25T08:24:12.625Z,101936.72
2023-02-25T08:26:42.693Z,101946.31
2023-02-25T08:29:12.270Z,101941.06
2023-02-25T08:31:42.332Z,101950.81
2023-02-25T08:34:12.304Z,101953.56
2023-02-25T08:36:42.009Z,101956.00
2023-02-25T08:39:12.249Z,101953.56
2023-02-25T08:41:41.992Z,101961.56
2023-02-25T08:44:11.596Z,101962.53
2023-02-25T08:46:41.994Z,101966.03
2023-02-25T08:49:12.165Z,101973.28
2023-02-25T08:51:42.498Z,101980.41
2023-02-25T08:54:14.402Z,101987.47
2023-02-25T08:56:45.810Z,101999.09
2023-02-25T08:59:16.669Z,101988.34
2023-02-25T09:01:46.342Z,101998.22
2023-02-25T09:04:25.203Z,101998.16
2023-02-25T09:06:55.661Z,102001.66
2023-02-25T09:09:25.331Z,102001.75
2023-02-25T09:11:55.118Z,102003.56
2023-02-25T09:14:24.824Z,102009.00
2023-02-25T09:16:54.447Z,102013.38
2023-02-25T09:19:24.034Z,102019.69
2023-02-25T09:21:53.779Z,102022.34
2023-02-25T09:24:23.379Z,102025.97
2023-02-25T09:26:52.983Z,102030.44
2023-02-25T09:29:22.555Z,102032.25
2023-02-25T09:31:52.375Z,102033.22
2023-02-25T09:34:22.294Z,102037.56
2023-02-25T09:36:52.042Z,102046.41
2023-02-25T09:39:21.656Z,102050.91
2023-02-25T09:42:12.483Z,102048.34
2023-02-25T09:44:47.383Z,102049.38
2023-02-25T09:47:20.881Z,102053.00
2023-02-25T09:50:27.713Z,102057.38
2023-02-25T09:53:04.774Z,102061.09
2023-02-25T09:55:43.970Z,102065.47
2023-02-25T09:58:19.622Z,102071.66
2023-02-25T10:01:04.071Z,102074.41
2023-02-25T10:03:45.116Z,102074.41
2023-02-25T10:06:44.769Z,102084.22
2023-02-25T10:09:38.998Z,102080.81
2023-02-25T10:12:35.144Z,102086.16
2023-02-25T10:15:28.712Z,102096.03
2023-02-25T10:18:12.962Z,102095.19
2023-02-25T10:20:54.101Z,102093.56
2023-02-25T10:23:45.045Z,102103.19
2023-02-25T10:26:24.867Z,102088.16
2023-02-25T10:29:06.977Z,102103.09
2023-02-25T10:31:36.763Z,102104.16
2023-02-25T10:34:28.885Z,102106.81
2023-02-25T10:36:59.875Z,102112.22
2023-02-25T10:39:30.309Z,102113.13
2023-02-25T10:41:59.920Z,102116.72
2023-02-25T10:44:29.524Z,102113.13
2023-02-25T10:47:04.520Z,102107.88
2023-02-25T10:49:39.706Z,102121.00
2023-02-25T10:52:19.358Z,102120.22
2023-02-25T10:54:56.092Z,102129.31
2023-02-25T10:57:27.407Z,102134.53
2023-02-25T11:00:06.132Z,102140.03
2023-02-25T11:02:43.650Z,102138.16
2023-02-25T11:05:42.430Z,102147.75
2023-02-25T11:08:28.282Z,102148.69
2023-02-25T11:11:15.774Z,102155.84
2023-02-25T11:13:45.658Z,102150.63
2023-02-25T11:16:15.934Z,102142.63
2023-02-25T11:18:45.592Z,102154.13
2023-02-25T11:21:15.999Z,102156.03
2023-02-25T11:23:45.544Z,102150.63
2023-02-25T11:26:30.376Z,102156.03
2023-02-25T11:29:04.912Z,102158.69
2023-02-25T11:31:38.873Z,102163.84
2023-02-25T11:34:32.341Z,102167.47
2023-02-25T11:37:41.938Z,102178.97
2023-02-25T11:40:23.274Z,102174.69
2023-02-25T11:43:07.771Z,102177.47
2023-02-25T11:45:41.453Z,102183.75
2023-02-25T11:48:20.387Z,102184.63
2023-02-25T11:51:19.014Z,102192.59
2023-02-25T11:53:51.651Z,102188.97
2023-02-25T11:56:30.326Z,102188.13
2023-02-25T11:59:27.454Z,102192.59
2023-02-25T12:02:18.225Z,102204.22
2023-02-25T12:05:08.996Z,102200.78
2023-02-25T12:08:12.822Z,102210.69
2023-02-25T12:11:23.260Z,102212.31
2023-02-25T12:14:14.899Z,102212.50
2023-02-25T12:17:00.422Z,102213.25
2023-02-25T12:19:42.558Z,102217.75
2023-02-25T12:22:20.898Z,102226.66
2023-02-25T12:24:54.645Z,102232.88
2023-02-25T12:27:37.860Z,102237.31
2023-02-25T12:30:13.448Z,102242.78
2023-02-25T12:32:58.959Z,102247.13
2023-02-25T12:36:05.268Z,102249.91
2023-02-25T12:39:02.301Z,102254.19
2023-02-25T12:41:50.601Z,102254.38
2023-02-25T12:44:53.315Z,102264.94
2023-02-25T12:47:31.762Z,102279.31
2023-02-25T12:50:19.438Z,102276.75
2023-02-25T12:52:52.532Z,102281.22
2023-02-25T12:55:49.537Z,102287.50
2023-02-25T12:58:21.957Z,102291.09
2023-02-25T13:01:03.603Z,102295.69
2023-02-25T13:03:58.994Z,102292.19
2023-02-25T13:06:34.726Z,102297.50
2023-02-25T13:09:28.595Z,102289.50
2023-02-25T13:12:12.221Z,102286.84
2023-02-25T13:15:18.787Z,102289.69
2023-02-25T13:17:57.069Z,102293.97
2023-02-25T13:20:46.850Z,102290.44
2023-02-25T13:23:35.939Z,102284.25
2023-02-25T13:26:24.177Z,102288.66
2023-02-25T13:29:21.086Z,102293.09
2023-02-25T13:31:56.997Z,102294.16
2023-02-25T13:35:05.057Z,102295.97
2023-02-25T13:37:39.314Z,102302.25
2023-02-25T13:40:08.264Z,102295.19
2023-02-25T13:43:02.880Z,102299.69
2023-02-25T13:45:53.863Z,102297.19
2023-02-25T13:48:32.664Z,102299.13
2023-02-25T13:51:14.580Z,102296.34
2023-02-25T13:54:02.519Z,102294.63
2023-02-25T13:57:08.777Z,102302.81
2023-02-25T13:59:53.307Z,102299.97
2023-02-25T14:02:40.358Z,102302.63
2023-02-25T14:05:40.530Z,102297.50
2023-02-25T14:08:15.689Z,102301.97
2023-02-25T14:11:05.336Z,102295.00
2023-02-25T14:14:19.122Z,102295.78
2023-02-25T14:17:19.617Z,102294.03
2023-02-25T14:19:52.958Z,102294.03
2023-02-25T14:22:22.649Z,102296.81
2023-02-25T14:25:14.372Z,102292.34
2023-02-25T14:27:47.411Z,102298.44
2023-02-25T14:30:19.841Z,102303.94
2023-02-25T14:33:10.392Z,102299.47
2023-02-25T14:35:49.154Z,102302.16
2023-02-25T14:38:59.056Z,102300.50
2023-02-25T14:41:49.597Z,102296.03
2023-02-25T14:44:27.072Z,102297.00
2023-02-25T14:47:23.163Z,102294.22
2023-02-25T14:50:10.809Z,102296.31
2023-02-25T14:52:52.523Z,102288.25
2023-02-25T14:55:32.034Z,102295.38
2023-02-25T14:58:04.499Z,102298.91
2023-02-25T15:01:22.475Z,102297.09
2023-02-25T15:04:16.374Z,102292.69
2023-02-25T15:07:13.560Z,102296.31
2023-02-25T15:10:01.469Z,102300.97
2023-02-25T15:13:08.851Z,102299.28
2023-02-25T15:16:02.865Z,102298.41
2023-02-25T15:19:06.062Z,102304.66
2023-02-25T15:21:48.014Z,102301.94
2023-02-25T15:24:30.014Z,102309.94
2023-02-25T15:27:00.032Z,102312.59
2023-02-25T15:29:35.788Z,102311.75
2023-02-25T15:32:26.630Z,102308.13
2023-02-25T15:35:08.105Z,102318.78
2023-02-25T15:38:00.491Z,102317.06
2023-02-25T15:40:36.122Z,102317.81
2023-02-25T15:43:17.945Z,102320.47
2023-02-25T15:45:50.839Z,102326.94
2023-02-25T15:48:22.976Z,102323.41
2023-02-25T15:50:55.356Z,102327.03
2023-02-25T15:53:27.929Z,102323.53
2023-02-25T15:56:06.247Z,102323.59
2023-02-25T15:58:35.746Z,102326.94
2023-02-25T16:01:08.121Z,102333.22
2023-02-25T16:03:37.607Z,102336.84
2023-02-25T16:06:16.009Z,102337.69
2023-02-25T16:09:06.824Z,102341.31
2023-02-25T16:11:47.595Z,102338.72
2023-02-25T16:14:21.971Z,102346.63
2023-02-25T16:17:02.181Z,102348.53
2023-02-25T16:19:34.925Z,102353.00
2023-02-25T16:22:11.730Z,102347.56
2023-02-25T16:24:41.300Z,102349.56
2023-02-25T16:27:23.211Z,102352.16
2023-02-25T16:30:17.116Z,102352.16
2023-02-25T16:32:54.662Z,102358.50
2023-02-25T16:35:33.564Z,102364.78
2023-02-25T16:38:09.372Z,102362.00
2023-02-25T16:40:43.050Z,102354.19
2023-02-25T16:43:27.466Z,102362.13
2023-02-25T16:46:08.135Z,102366.50
2023-02-25T16:48:53.882Z,102369.25
2023-02-25T16:51:29.011Z,102363.81
2023-02-25T16:54:19.609Z,102366.59
2023-02-25T16:56:50.549Z,102358.59
2023-02-25T16:59:23.014Z,102357.72
2023-02-25T17:01:59.450Z,102358.59
2023-02-25T17:04:35.970Z,102364.78
2023-02-25T17:07:09.249Z,102366.59
2023-02-25T17:09:42.936Z,102356.88
2023-02-25T17:12:13.524Z,102362.19
2023-02-25T17:14:45.674Z,102367.72
2023-02-25T17:17:36.734Z,102368.66
2023-02-25T17:20:10.185Z,102361.44
2023-02-25T17:22:39.807Z,102370.44
2023-02-25T17:25:12.458Z,102364.09
2023-02-25T17:27:42.558Z,102365.97
2023-02-25T17:30:43.787Z,102363.31
2023-02-25T17:33:48.282Z,102373.22
2023-02-25T17:36:20.506Z,102378.63
2023-02-25T17:38:50.176Z,102376.81
2023-02-25T17:41:20.173Z,102365.13
2023-02-25T17:43:49.875Z,102370.63
2023-02-25T17:46:22.636Z,102365.47
2023-02-25T17:49:22.908Z,102369.69
2023-02-25T17:52:06.110Z,102372.38
2023-02-25T17:54:36.946Z,102373.22
2023-02-25T17:57:11.915Z,102368.91
2023-02-25T17:59:43.081Z,102369.78
2023-02-25T18:02:35.494Z,102372.53
2023-02-25T18:05:14.128Z,102367.38
2023-02-25T18:07:44.323Z,102365.47
2023-02-25T18:10:25.780Z,102369.16
2023-02-25T18:12:58.543Z,102360.31
2023-02-25T18:15:33.162Z,102361.19
2023-02-25T18:18:04.530Z,102356.75
2023-02-25T18:20:36.221Z,102365.72
2023-02-25T18:23:10.458Z,102366.69
2023-02-25T18:25:39.934Z,102364.00
2023-02-25T18:28:17.765Z,102367.53
2023-02-25T18:30:48.319Z,102372.00
2023-02-25T18:33:19.050Z,102371.22
2023-02-25T18:35:49.190Z,102375.50
2023-02-25T18:38:23.942Z,102370.28
2023-02-25T18:40:53.974Z,102372.09
2023-02-25T18:43:30.291Z,102371.03
2023-02-25T18:45:59.909Z,102373.88
2023-02-25T18:48:29.534Z,102375.63
2023-02-25T18:51:00.143Z,102379.19
2023-02-25T18:53:29.964Z,102383.50
2023-02-25T18:55:59.953Z,102385.56
2023-02-25T18:58:29.517Z,102381.00
2023-02-25T19:01:00.194Z,102382.81
2023-02-25T19:03:33.547Z,102382.81
2023-02-25T19:06:03.174Z,102386.25
2023-02-25T19:08:32.972Z,102388.13
2023-02-25T19:11:03.618Z,102385.41
2023-02-25T19:13:38.600Z,102385.56
2023-02-25T19:16:08.764Z,102388.25
2023-02-25T19:18:43.034Z,102393.56
2023-02-25T19:21:15.467Z,102393.56
2023-02-25T19:23:45.152Z,102402.56
2023-02-25T19:26:14.880Z,102391.94
2023-02-25T19:28:44.533Z,102397.34
2023-02-25T19:31:14.256Z,102400.75
2023-02-25T19:33:43.902Z,102401.63
2023-02-25T19:36:13.704Z,102402.75
2023-02-25T19:38:43.348Z,102406.38
2023-02-25T19:41:15.766Z,102413.31
2023-02-25T19:43:45.365Z,102413.31
2023-02-25T19:46:18.757Z,102416.91
2023-02-25T19:48:48.410Z,102424.81
2023-02-25T19:51:17.979Z,102424.13
2023-02-25T19:53:47.587Z,102425.75
2023-02-25T19:56:17.138Z,102424.13
2023-02-25T19:58:46.755Z,102432.03
2023-02-25T20:01:16.516Z,102421.53
2023-02-25T20:03:46.126Z,102425.09
2023-02-25T20:06:15.768Z,102430.31
2023-02-25T20:08:47.363Z,102430.41
2023-02-25T20:11:16.967Z,102431.34
2023-02-25T20:13:46.631Z,102434.00
2023-02-25T20:16:16.313Z,102440.38
2023-02-25T20:18:45.854Z,102426.97
2023-02-25T20:21:15.544Z,102441.22
2023-02-25T20:23:45.227Z,102437.63
2023-02-25T20:26:16.639Z,102438.56
2023-02-25T20:28:46.567Z,102434.84
2023-02-25T20:31:18.280Z,102442.94
2023-02-25T20:33:48.179Z,102434.94
2023-02-25T20:36:23.339Z,102441.28
2023-02-25T20:39:22.843Z,102441.41
2023-02-25T20:41:52.583Z,102444.81
2023-02-25T20:44:22.409Z,102444.13
2023-02-25T20:46:52.292Z,102437.03
2023-02-25T20:49:22.455Z,102446.78
2023-02-25T20:51:52.259Z,102443.97
2023-02-25T20:54:22.075Z,102441.41
2023-02-25T20:56:51.799Z,102448.53
2023-02-25T20:59:21.503Z,102453.91
2023-02-25T21:01:51.095Z,102453.06
2023-02-25T21:04:20.749Z,102459.16
2023-02-25T21:06:50.644Z,102461.72
2023-02-25T21:09:20.284Z,102458.22
2023-02-25T21:11:49.880Z,102458.38
2023-02-25T21:14:19.547Z,102460.28
2023-02-25T21:16:49.166Z,102462.84
2023-02-25T21:19:18.755Z,102461.03
2023-02-25T21:21:48.342Z,102465.59
2023-02-25T21:24:18.208Z,102457.63
2023-02-25T21:26:48.095Z,102466.47
2023-02-25T21:29:17.697Z,102460.28
2023-02-25T21:31:47.438Z,102467.41
2023-02-25T21:34:17.180Z,102462.94
2023-02-25T21:36:46.938Z,102457.69
2023-02-25T21:39:16.502Z,102460.34
2023-02-25T21:41:47.627Z,102462.94
2023-02-25T21:44:17.307Z,102467.41
2023-02-25T21:46:47.011Z,102457.69
2023-02-25T21:49:16.729Z,102455.28
2023-02-25T21:51:46.531Z,102463.19
2023-02-25T21:54:16.467Z,102463.28
2023-02-25T21:56:46.136Z,102465.94
2023-02-25T21:59:15.691Z,102466.03
2023-02-25T22:01:45.409Z,102469.56
2023-02-25T22:04:15.105Z,102470.47
2023-02-25T22:06:44.967Z,102469.63
2023-02-25T22:09:14.667Z,102466.97
2023-02-25T22:11:44.366Z,102468.75
2023-02-25T22:14:14.053Z,102476.69
2023-02-25T22:16:43.754Z,102477.69
2023-02-25T22:19:13.402Z,102475.97
2023-02-25T22:21:43.076Z,102485.69
2023-02-25T22:24:12.782Z,102480.44
2023-02-25T22:26:42.360Z,102476.91
2023-02-25T22:29:11.999Z,102481.38
2023-02-25T22:31:41.685Z,102479.56
2023-02-25T22:34:11.423Z,102480.63
2023-02-25T22:36:41.054Z,102485.84
2023-02-25T22:39:10.892Z,102490.16
2023-02-25T22:41:40.697Z,102491.16
2023-02-25T22:44:10.258Z,102496.47
2023-02-25T22:46:40.653Z,102496.56
2023-02-25T22:49:10.498Z,102500.09
2023-02-25T22:51:43.585Z,102493.13
2023-02-25T22:54:17.246Z,102496.56
2023-02-25T22:56:47.460Z,102504.56
2023-02-25T22:59:17.107Z,102504.63
2023-02-25T23:01:46.703Z,102503.78
2023-02-25T23:04:16.377Z,102507.28
2023-02-25T23:06:46.324Z,102518.72
2023-02-25T23:09:16.670Z,102509.78
2023-02-25T23:11:46.682Z,102520.44
2023-02-25T23:14:16.889Z,102532.03
2023-02-25T23:16:48.689Z,102519.72
2023-02-25T23:19:19.760Z,102519.66
2023-02-25T23:21:49.344Z,102521.28
2023-02-25T23:24:20.903Z,102528.50
2023-02-25T23:26:57.871Z,102528.50
2023-02-25T23:29:27.452Z,102534.75
2023-02-25T23:31:57.696Z,102528.56
2023-02-25T23:34:27.480Z,102530.38
2023-02-25T23:36:58.057Z,102547.13
2023-02-25T23:39:27.975Z,102551.50
2023-02-25T23:41:57.574Z,102552.50
2023-02-25T23:44:27.486Z,102554.25
2023-02-25T23:46:57.212Z,102555.88
2023-02-25T23:49:26.934Z,102558.63
2023-02-25T23:51:56.610Z,102548.03
2023-02-25T23:54:26.227Z,102560.44
2023-02-25T23:56:55.849Z,102557.78
2023-02-25T23:59:25.571Z,102556.91
